Time;durP1;ratioP1;P1;durP2;ratioP2;P2;SDS_P1;SDS_P2;PMS_P1;PMS_P2;Temp;Humidity;BMP_temperature;BMP_pressure;BME280_temperature;BME280_humidity;BME280_pressure;Samples;Min_cycle;Max_cycle;Signal;HPM_P1;HPM_P2
2022/10/24 00:01:55;;;;;;;14.35;3.95;;;24.50;50.20;;;;;;6104286;29;20035;-78
2022/10/24 00:04:56;;;;;;;21.40;4.47;;;24.50;50.00;;;;;;6104620;29;20079;-78
2022/10/24 00:07:56;;;;;;;23.73;4.43;;;24.50;50.50;;;;;;6100755;29;20036;-78
2022/10/24 00:10:57;;;;;;;22.35;4.75;;;24.50;50.80;;;;;;6105521;29;20043;-78
2022/10/24 00:13:58;;;;;;;24.85;4.25;;;24.50;51.00;;;;;;6104416;29;20095;-78
2022/10/24 00:16:59;;;;;;;23.73;5.20;;;24.40;50.90;;;;;;6100034;29;20040;-78
2022/10/24 00:20:00;;;;;;;17.10;4.43;;;24.40;51.30;;;;;;6104665;29;20044;-78
2022/10/24 00:23:01;;;;;;;23.60;4.15;;;24.40;51.50;;;;;;6100764;29;20120;-78
2022/10/24 00:26:03;;;;;;;30.73;4.72;;;24.40;51.30;;;;;;6103526;29;20047;-78
2022/10/24 00:29:04;;;;;;;26.80;4.57;;;24.40;51.30;;;;;;6099272;29;20070;-78
2022/10/24 00:32:05;;;;;;;21.15;4.07;;;24.40;51.30;;;;;;6086426;29;20233;-78
2022/10/24 00:35:06;;;;;;;22.25;3.90;;;24.50;51.30;;;;;;6093978;29;20047;-78
2022/10/24 00:38:07;;;;;;;17.88;4.93;;;24.40;51.30;;;;;;6094995;29;20032;-78
2022/10/24 00:41:13;;;;;;;20.33;3.67;;;24.50;51.10;;;;;;6101391;29;20469;-78
2022/10/24 00:44:27;;;;;;;25.02;4.13;;;24.40;50.70;;;;;;6101199;29;20036;-78
2022/10/24 00:47:29;;;;;;;11.55;3.22;;;24.40;50.20;;;;;;6112199;29;20024;-78
2022/10/24 00:50:30;;;;;;;13.30;3.72;;;24.40;49.90;;;;;;6104968;29;20481;-77
2022/10/24 00:53:33;;;;;;;23.73;3.53;;;24.40;49.70;;;;;;6095125;29;20038;-78
2022/10/24 00:56:40;;;;;;;22.30;3.50;;;24.40;49.60;;;;;;6091593;29;20032;-78
2022/10/24 00:59:45;;;;;;;14.43;3.30;;;24.40;49.30;;;;;;6098557;29;20044;-79
2022/10/24 01:02:46;;;;;;;15.32;2.88;;;24.40;49.10;;;;;;6118525;29;20062;-78
2022/10/24 01:05:52;;;;;;;17.88;3.60;;;24.30;49.00;;;;;;6085539;29;20067;-77
2022/10/24 01:09:13;;;;;;;20.13;3.90;;;24.20;48.90;;;;;;6101890;29;20350;-77
2022/10/24 01:12:38;;;;;;;16.33;3.22;;;24.10;48.90;;;;;;6101685;29;20451;-77
2022/10/24 01:15:52;;;;;;;25.88;4.40;;;24.10;49.00;;;;;;6087627;29;20516;-79
2022/10/24 01:18:58;;;;;;;16.45;3.33;;;24.00;49.00;;;;;;6114470;29;20043;-79
2022/10/24 01:22:22;;;;;;;27.00;3.35;;;24.00;49.10;;;;;;6114893;29;20048;-79
2022/10/24 01:25:55;;;;;;;20.60;4.05;;;24.00;49.20;;;;;;6091612;29;20040;-77
2022/10/24 01:29:02;;;;;;;34.20;3.40;;;23.90;49.30;;;;;;6049534;29;20096;-79
2022/10/24 01:32:17;;;;;;;22.02;3.88;;;23.80;49.90;;;;;;6051437;29;20049;-79
2022/10/24 01:35:34;;;;;;;11.93;3.58;;;23.80;49.40;;;;;;6051187;29;20132;-77
2022/10/24 01:38:35;;;;;;;16.15;3.42;;;23.80;49.30;;;;;;6027403;29;20040;-77
2022/10/24 01:41:39;;;;;;;20.90;3.63;;;23.80;49.30;;;;;;6052978;29;20065;-79
2022/10/24 01:44:44;;;;;;;8.65;2.92;;;23.70;49.30;;;;;;6036112;29;20040;-77
2022/10/24 01:47:51;;;;;;;38.13;4.13;;;23.70;49.30;;;;;;6051641;29;20045;-78
2022/10/24 01:50:54;;;;;;;35.90;4.13;;;23.70;49.90;;;;;;6045315;29;20049;-77
2022/10/24 01:53:56;;;;;;;31.13;4.20;;;23.70;50.20;;;;;;6044978;29;20044;-77
2022/10/24 01:56:57;;;;;;;18.40;3.67;;;23.70;50.30;;;;;;6038809;29;20137;-78
2022/10/24 01:59:58;;;;;;;24.35;4.20;;;23.70;50.80;;;;;;6035825;29;20037;-78
2022/10/24 02:03:21;;;;;;;25.02;4.32;;;23.70;51.30;;;;;;6051382;29;20052;-78
2022/10/24 02:06:28;;;;;;;27.90;4.22;;;23.70;51.50;;;;;;6074872;29;20454;-78
2022/10/24 02:09:32;;;;;;;19.13;4.32;;;23.70;51.50;;;;;;6112424;29;20128;-78
2022/10/24 02:12:38;;;;;;;26.15;4.45;;;23.70;51.90;;;;;;6105743;29;20033;-77
2022/10/24 02:15:43;;;;;;;23.40;4.22;;;23.70;52.20;;;;;;6098079;29;20120;-78
2022/10/24 02:18:47;;;;;;;20.00;3.65;;;23.70;52.10;;;;;;6097287;29;20078;-78
2022/10/24 02:22:14;;;;;;;16.73;4.28;;;23.70;52.00;;;;;;6096997;29;20043;-78
2022/10/24 02:25:27;;;;;;;20.40;4.25;;;23.70;52.10;;;;;;6033426;29;20124;-78
2022/10/24 02:28:35;;;;;;;24.60;4.97;;;23.70;52.00;;;;;;6043582;29;20033;-78
2022/10/24 02:31:41;;;;;;;17.08;4.00;;;23.70;52.10;;;;;;6013322;29;20116;-78
2022/10/24 02:34:44;;;;;;;18.33;4.57;;;23.80;52.50;;;;;;6037760;29;20072;-78
2022/10/24 02:37:52;;;;;;;20.77;4.22;;;23.70;52.60;;;;;;6042438;29;20034;-78
2022/10/24 02:40:54;;;;;;;24.63;3.95;;;23.70;52.60;;;;;;6044634;29;20034;-78
2022/10/24 02:43:56;;;;;;;14.48;3.75;;;23.70;52.60;;;;;;6037611;29;20459;-78
2022/10/24 02:47:00;;;;;;;14.02;4.00;;;23.70;52.60;;;;;;6039190;29;20037;-78
2022/10/24 02:50:01;;;;;;;25.38;4.18;;;23.70;52.70;;;;;;6035894;29;20029;-78
2022/10/24 02:53:02;;;;;;;28.80;4.68;;;23.60;52.70;;;;;;6043144;29;20377;-78
2022/10/24 02:56:03;;;;;;;18.80;4.32;;;23.60;52.60;;;;;;6044148;29;20166;-77
2022/10/24 02:59:04;;;;;;;22.83;4.32;;;23.60;52.50;;;;;;6040905;29;20076;-78
2022/10/24 03:02:05;;;;;;;16.75;4.10;;;23.60;52.50;;;;;;6064762;29;20043;-77
2022/10/24 03:05:06;;;;;;;21.50;4.50;;;23.60;52.60;;;;;;6087629;29;20028;-77
2022/10/24 03:08:07;;;;;;;14.95;3.90;;;23.60;52.60;;;;;;6109248;29;20036;-77
2022/10/24 03:11:08;;;;;;;17.65;4.57;;;23.60;52.60;;;;;;6101799;29;20456;-77
2022/10/24 03:14:08;;;;;;;24.20;4.38;;;23.60;52.70;;;;;;6103569;29;20064;-77
2022/10/24 03:17:09;;;;;;;22.45;4.20;;;23.50;52.80;;;;;;6101857;29;20066;-77
2022/10/24 03:20:10;;;;;;;25.55;4.50;;;23.50;52.90;;;;;;6104575;29;20040;-77
2022/10/24 03:23:11;;;;;;;21.70;3.60;;;23.50;53.10;;;;;;6118200;29;20046;-77
2022/10/24 03:26:12;;;;;;;27.17;5.20;;;23.50;53.20;;;;;;6078886;29;20032;-77
2022/10/24 03:29:13;;;;;;;28.90;4.65;;;23.50;53.60;;;;;;6103653;29;20119;-77
2022/10/24 03:32:14;;;;;;;20.67;4.18;;;23.40;53.60;;;;;;6117059;29;20067;-78
2022/10/24 03:35:15;;;;;;;11.98;4.60;;;23.40;53.80;;;;;;6103628;29;20028;-77
2022/10/24 03:38:16;;;;;;;20.67;4.65;;;23.30;53.90;;;;;;6117854;29;20043;-77
2022/10/24 03:41:17;;;;;;;14.48;3.60;;;23.40;54.10;;;;;;6116236;29;20032;-77
2022/10/24 03:44:17;;;;;;;14.65;3.72;;;23.30;54.10;;;;;;6117930;29;20119;-78
2022/10/24 03:47:18;;;;;;;25.38;4.38;;;23.30;53.90;;;;;;6117242;29;20036;-78
2022/10/24 03:50:19;;;;;;;18.65;4.15;;;23.20;53.90;;;;;;6102817;29;20666;-78
2022/10/24 03:53:20;;;;;;;20.73;4.57;;;23.40;54.10;;;;;;6116709;29;20044;-78
2022/10/24 03:56:21;;;;;;;18.17;4.47;;;23.20;54.70;;;;;;6100616;29;20358;-78
2022/10/24 03:59:22;;;;;;;17.85;4.13;;;23.20;54.00;;;;;;6115020;29;20078;-78
2022/10/24 04:02:23;;;;;;;19.10;3.67;;;23.20;53.90;;;;;;6107124;29;20058;-77
2022/10/24 04:05:24;;;;;;;22.70;4.40;;;23.20;54.10;;;;;;6117377;29;20031;-77
2022/10/24 04:08:24;;;;;;;20.38;4.97;;;23.20;54.20;;;;;;6102747;29;20159;-77
2022/10/24 04:11:26;;;;;;;23.52;4.70;;;23.20;54.40;;;;;;6111005;29;20047;-77
2022/10/24 04:14:27;;;;;;;16.95;4.25;;;23.20;54.80;;;;;;6106028;29;20035;-77
2022/10/24 04:17:27;;;;;;;15.30;4.47;;;23.10;55.10;;;;;;6094158;29;20063;-77
2022/10/24 04:20:28;;;;;;;22.15;3.97;;;23.10;55.40;;;;;;6074075;29;20052;-77
2022/10/24 04:23:34;;;;;;;13.82;4.50;;;23.10;55.70;;;;;;6118283;29;20453;-78
2022/10/24 04:26:35;;;;;;;26.02;5.10;;;23.00;55.70;;;;;;6116533;29;20056;-78
2022/10/24 04:29:36;;;;;;;37.20;4.72;;;23.00;55.60;;;;;;6101986;29;20747;-78
2022/10/24 04:32:37;;;;;;;24.83;4.40;;;23.00;55.50;;;;;;6102630;29;20082;-78
2022/10/24 04:35:38;;;;;;;36.22;4.75;;;23.00;55.50;;;;;;6112447;29;20422;-77
2022/10/24 04:38:39;;;;;;;26.15;4.80;;;23.00;55.50;;;;;;6102311;29;20040;-77
2022/10/24 04:41:40;;;;;;;10.55;3.45;;;23.00;55.60;;;;;;6093256;29;20036;-77
2022/10/24 04:44:41;;;;;;;25.80;4.93;;;22.90;55.80;;;;;;6087883;29;20517;-77
2022/10/24 04:47:42;;;;;;;13.18;3.72;;;22.90;55.90;;;;;;6086462;29;20036;-77
2022/10/24 04:50:45;;;;;;;14.93;3.33;;;22.90;56.10;;;;;;6098642;29;20087;-77
2022/10/24 04:53:46;;;;;;;19.35;4.25;;;22.90;56.10;;;;;;6089233;29;20064;-77
2022/10/24 04:56:47;;;;;;;18.05;4.13;;;22.90;56.10;;;;;;6107757;29;20089;-78
2022/10/24 04:59:48;;;;;;;17.42;4.05;;;22.80;56.00;;;;;;6089472;29;20187;-77
2022/10/24 05:02:49;;;;;;;21.15;4.82;;;22.80;56.00;;;;;;6113491;29;20061;-78
2022/10/24 05:05:49;;;;;;;15.02;3.95;;;22.80;56.00;;;;;;6098688;29;20062;-78
2022/10/24 05:08:50;;;;;;;22.65;4.57;;;22.80;56.20;;;;;;6115429;29;20425;-77
2022/10/24 05:11:54;;;;;;;30.35;4.20;;;22.90;56.20;;;;;;6100065;29;20087;-77
2022/10/24 05:14:55;;;;;;;27.98;4.82;;;22.80;56.10;;;;;;6072064;29;20098;-77
2022/10/24 05:17:57;;;;;;;19.88;4.03;;;22.90;56.10;;;;;;6106715;29;20051;-77
2022/10/24 05:20:59;;;;;;;24.30;4.18;;;22.90;56.20;;;;;;6100245;29;20736;-77
2022/10/24 05:24:00;;;;;;;27.55;4.18;;;22.90;56.20;;;;;;6093702;29;20060;-77
2022/10/24 05:27:00;;;;;;;17.05;5.18;;;22.90;56.20;;;;;;6106976;29;20051;-77
2022/10/24 05:30:01;;;;;;;11.23;4.22;;;22.90;56.40;;;;;;6102605;29;20035;-77
2022/10/24 05:33:02;;;;;;;29.98;5.63;;;22.90;56.50;;;;;;6115472;29;20095;-77
2022/10/24 05:36:03;;;;;;;23.02;4.93;;;22.90;56.70;;;;;;6099190;29;20024;-78
2022/10/24 05:39:05;;;;;;;20.30;5.30;;;22.90;56.90;;;;;;6116957;29;20044;-78
2022/10/24 05:42:05;;;;;;;21.75;5.57;;;22.90;57.10;;;;;;6098694;29;20107;-78
2022/10/24 05:45:08;;;;;;;18.55;4.38;;;22.80;57.20;;;;;;6099637;29;20511;-78
2022/10/24 05:48:09;;;;;;;14.10;4.28;;;22.80;57.40;;;;;;6097453;29;20382;-78
2022/10/24 05:51:10;;;;;;;32.80;5.47;;;22.80;57.60;;;;;;6097104;29;20039;-78
2022/10/24 05:54:11;;;;;;;19.52;4.20;;;22.70;57.80;;;;;;6098063;29;20595;-78
2022/10/24 05:57:12;;;;;;;22.77;4.20;;;22.70;57.90;;;;;;6097601;29;20038;-78
2022/10/24 06:00:14;;;;;;;22.50;5.10;;;22.60;58.10;;;;;;6116983;29;20043;-78
2022/10/24 06:03:15;;;;;;;21.73;4.32;;;22.50;58.60;;;;;;6105715;29;20134;-78
2022/10/24 06:06:16;;;;;;;27.20;4.72;;;22.40;59.00;;;;;;6104946;29;20109;-77
2022/10/24 06:09:17;;;;;;;20.85;5.05;;;22.20;59.90;;;;;;6125644;29;20046;-80
2022/10/24 06:12:18;;;;;;;19.98;3.88;;;22.00;61.10;;;;;;6103925;29;20438;-78
2022/10/24 06:15:19;;;;;;;17.45;3.00;;;21.80;62.40;;;;;;6101250;29;20461;-78
2022/10/24 06:18:20;;;;;;;15.80;3.33;;;21.60;62.60;;;;;;6109841;29;20581;-78
2022/10/24 06:21:21;;;;;;;16.15;3.33;;;21.40;61.50;;;;;;6115478;29;20054;-79
2022/10/24 06:24:22;;;;;;;17.45;4.20;;;21.30;61.50;;;;;;6102600;29;20036;-79
2022/10/24 06:27:23;;;;;;;18.05;3.90;;;21.30;61.60;;;;;;6103535;29;20070;-78
2022/10/24 06:30:24;;;;;;;14.35;3.92;;;21.40;62.10;;;;;;6090141;29;20032;-78
2022/10/24 06:33:25;;;;;;;14.90;4.32;;;21.30;62.80;;;;;;6098661;29;20044;-79
2022/10/24 06:36:26;;;;;;;16.88;4.18;;;21.30;63.20;;;;;;6104525;29;20063;-78
2022/10/24 06:39:27;;;;;;;19.98;4.25;;;21.30;63.90;;;;;;6096436;29;20076;-78
2022/10/24 06:42:27;;;;;;;12.43;3.65;;;21.20;64.40;;;;;;6097627;29;20088;-76
2022/10/24 06:45:28;;;;;;;15.00;3.97;;;21.20;64.80;;;;;;6103947;29;20475;-77
2022/10/24 06:48:29;;;;;;;15.77;3.85;;;21.10;65.10;;;;;;6117527;29;20032;-78
2022/10/24 06:51:30;;;;;;;21.65;4.18;;;21.10;65.30;;;;;;6116737;29;20047;-78
2022/10/24 06:54:32;;;;;;;22.85;4.00;;;21.00;65.50;;;;;;6102374;29;20469;-78
2022/10/24 06:57:33;;;;;;;22.95;5.07;;;21.00;65.80;;;;;;6115116;29;20032;-77
2022/10/24 07:00:34;;;;;;;14.02;4.55;;;20.90;66.00;;;;;;6101309;29;20035;-78
2022/10/24 07:03:35;;;;;;;15.32;4.78;;;20.90;66.50;;;;;;6097669;29;20060;-77
2022/10/24 07:06:36;;;;;;;14.80;3.65;;;20.80;66.80;;;;;;6115560;29;20020;-78
2022/10/24 07:09:37;;;;;;;15.35;3.75;;;20.80;67.00;;;;;;6090269;29;20037;-79
2022/10/24 07:12:38;;;;;;;27.83;4.32;;;20.80;67.30;;;;;;6106415;29;20046;-79
2022/10/24 07:15:38;;;;;;;22.48;4.32;;;20.80;67.70;;;;;;6112131;29;20036;-78
2022/10/24 07:18:40;;;;;;;19.63;3.85;;;20.70;67.70;;;;;;6099017;29;20032;-78
2022/10/24 07:21:41;;;;;;;18.17;3.58;;;20.80;67.70;;;;;;6103043;29;20466;-79
2022/10/24 07:24:41;;;;;;;23.05;3.85;;;20.80;67.70;;;;;;6104254;29;20103;-79
2022/10/24 07:27:42;;;;;;;19.63;3.90;;;20.80;67.70;;;;;;6103565;29;20052;-79
2022/10/24 07:30:44;;;;;;;13.70;4.28;;;20.80;67.70;;;;;;6103399;29;20036;-79
2022/10/24 07:33:45;;;;;;;14.73;3.00;;;20.80;67.70;;;;;;6104472;29;20070;-79
2022/10/24 07:36:46;;;;;;;14.82;4.63;;;20.90;67.60;;;;;;6101417;29;20453;-79
2022/10/24 07:39:47;;;;;;;25.80;3.75;;;20.90;67.40;;;;;;6087485;29;20056;-77
2022/10/24 07:42:48;;;;;;;11.25;3.55;;;20.90;67.30;;;;;;6099233;29;20111;-77
2022/10/24 07:45:49;;;;;;;19.05;4.78;;;20.90;67.30;;;;;;6100238;29;20071;-78
2022/10/24 07:48:51;;;;;;;16.20;4.13;;;20.90;67.60;;;;;;6089806;29;20518;-78
2022/10/24 07:51:52;;;;;;;17.77;3.67;;;20.80;68.00;;;;;;6091326;29;20032;-78
2022/10/24 07:54:54;;;;;;;12.80;3.55;;;20.70;68.30;;;;;;6086900;29;20043;-78
2022/10/24 07:57:55;;;;;;;21.88;4.47;;;20.70;68.40;;;;;;6087433;29;20139;-78
2022/10/24 08:01:05;;;;;;;13.02;3.75;;;20.80;68.40;;;;;;6101611;29;20032;-78
2022/10/24 08:04:06;;;;;;;17.80;4.10;;;20.80;68.30;;;;;;6100489;29;20042;-78
2022/10/24 08:07:11;;;;;;;18.08;4.18;;;20.90;68.00;;;;;;6105929;29;20059;-78
2022/10/24 08:10:12;;;;;;;28.10;4.38;;;21.00;67.90;;;;;;6103341;29;20035;-78
2022/10/24 08:13:13;;;;;;;12.10;3.53;;;21.10;67.70;;;;;;6092377;29;20025;-78
2022/10/24 08:16:15;;;;;;;15.75;3.80;;;21.20;67.50;;;;;;6094926;29;20036;-78
2022/10/24 08:19:16;;;;;;;18.02;3.97;;;21.30;67.20;;;;;;6100974;29;20036;-78
2022/10/24 08:22:17;;;;;;;16.38;4.35;;;21.40;67.00;;;;;;6117734;29;20039;-80
2022/10/24 08:25:18;;;;;;;21.27;4.75;;;21.50;66.70;;;;;;6102919;29;20410;-78
2022/10/24 08:28:19;;;;;;;16.90;4.28;;;21.50;66.40;;;;;;6104055;29;20374;-78
2022/10/24 08:31:22;;;;;;;19.05;3.85;;;21.50;66.20;;;;;;6104045;29;20563;-78
2022/10/24 08:34:23;;;;;;;17.95;4.93;;;21.60;66.20;;;;;;6117063;29;20031;-78
2022/10/24 08:37:23;;;;;;;19.20;5.40;;;21.50;66.10;;;;;;6098845;29;20052;-77
2022/10/24 08:40:25;;;;;;;15.68;4.13;;;21.50;66.30;;;;;;6095691;29;20044;-77
2022/10/24 08:43:26;;;;;;;17.55;4.60;;;21.40;66.30;;;;;;6117627;29;20047;-77
2022/10/24 08:46:47;;;;;;;17.52;4.40;;;21.40;66.60;;;;;;6104500;29;20042;-77
2022/10/24 08:50:03;;;;;;;25.15;4.65;;;21.40;66.80;;;;;;6076694;29;20075;-78
2022/10/24 08:53:26;;;;;;;23.73;5.38;;;21.30;67.00;;;;;;6094871;29;20063;-78
2022/10/24 08:56:31;;;;;;;15.38;4.22;;;21.30;67.20;;;;;;6089469;29;20119;-77
2022/10/24 08:59:35;;;;;;;22.15;4.35;;;21.30;67.10;;;;;;6099044;29;20365;-78
2022/10/24 09:02:38;;;;;;;13.48;4.22;;;21.30;67.10;;;;;;6100420;29;20048;-78
2022/10/24 09:05:49;;;;;;;12.35;4.03;;;21.30;67.00;;;;;;6093008;29;20044;-78
2022/10/24 09:08:59;;;;;;;23.25;4.03;;;21.30;67.10;;;;;;6107626;29;20395;-78
2022/10/24 09:12:12;;;;;;;17.00;4.03;;;21.40;67.00;;;;;;6085214;29;20091;-78
2022/10/24 09:15:18;;;;;;;13.20;4.20;;;21.40;66.80;;;;;;6097329;29;20067;-78
2022/10/24 09:18:26;;;;;;;12.50;3.78;;;21.40;66.60;;;;;;6092477;29;20466;-78
2022/10/24 09:21:27;;;;;;;17.00;4.13;;;21.40;66.60;;;;;;6100740;29;20396;-77
2022/10/24 09:24:31;;;;;;;24.10;3.70;;;21.40;66.60;;;;;;6097915;29;20044;-78
2022/10/24 09:27:36;;;;;;;24.45;4.50;;;21.40;66.50;;;;;;6101103;29;20043;-78
2022/10/24 09:30:37;;;;;;;24.80;4.60;;;21.40;66.40;;;;;;6105673;29;20035;-78
2022/10/24 09:33:41;;;;;;;12.50;2.83;;;21.50;66.30;;;;;;6102513;29;20040;-77
2022/10/24 09:36:44;;;;;;;19.42;3.40;;;21.60;66.00;;;;;;6100296;29;20036;-77
2022/10/24 09:39:45;;;;;;;16.83;3.03;;;21.60;65.80;;;;;;6099198;29;20036;-78
2022/10/24 09:42:54;;;;;;;11.27;3.85;;;21.60;65.60;;;;;;6097656;29;20047;-78
2022/10/24 09:46:16;;;;;;;11.48;3.17;;;21.60;65.30;;;;;;6116556;29;20142;-77
2022/10/24 09:49:22;;;;;;;16.05;3.67;;;21.60;65.20;;;;;;6110008;29;20504;-79
2022/10/24 09:52:28;;;;;;;14.25;3.42;;;21.50;65.20;;;;;;6096695;29;20028;-80
2022/10/24 09:55:30;;;;;;;20.17;4.03;;;21.50;65.50;;;;;;6097932;29;20111;-79
2022/10/24 09:58:32;;;;;;;11.10;2.83;;;21.50;65.50;;;;;;6100059;29;20473;-78
2022/10/24 10:01:33;;;;;;;13.32;3.30;;;21.50;65.40;;;;;;6099890;29;20067;-78
2022/10/24 10:04:34;;;;;;;14.05;3.75;;;21.50;65.40;;;;;;6084454;29;20040;-78
2022/10/24 10:07:39;;;;;;;8.15;3.03;;;21.60;65.30;;;;;;6100142;29;20036;-78
2022/10/24 10:10:40;;;;;;;19.75;3.03;;;21.80;65.10;;;;;;6098811;29;20091;-78
2022/10/24 10:13:53;;;;;;;13.88;2.92;;;21.90;64.80;;;;;;6104979;29;20036;-78
2022/10/24 10:17:00;;;;;;;13.65;3.42;;;22.00;64.70;;;;;;6102322;29;20054;-78
2022/10/24 10:20:01;;;;;;;19.27;3.88;;;22.10;64.40;;;;;;6091746;29;20044;-78
2022/10/24 10:23:23;;;;;;;13.77;3.03;;;22.20;63.80;;;;;;6090490;29;20040;-78
2022/10/24 10:26:40;;;;;;;15.25;2.70;;;22.30;63.70;;;;;;6089288;29;20043;-78
2022/10/24 10:29:41;;;;;;;21.52;3.58;;;22.40;63.20;;;;;;6090751;29;20406;-77
2022/10/24 10:33:00;;;;;;;17.48;4.70;;;22.50;62.80;;;;;;6109377;29;20070;-78
2022/10/24 10:36:26;;;;;;;9.23;3.10;;;22.60;62.50;;;;;;6107975;29;20036;-79
2022/10/24 10:39:48;;;;;;;10.73;2.97;;;22.80;62.20;;;;;;6095967;29;20057;-79
2022/10/24 10:42:49;;;;;;;13.80;3.53;;;23.00;61.80;;;;;;6089279;29;20040;-79
2022/10/24 10:46:10;;;;;;;14.80;3.15;;;23.10;61.20;;;;;;6095963;29;20041;-78
2022/10/24 10:49:17;;;;;;;10.10;3.03;;;23.20;60.90;;;;;;6105548;29;20043;-79
2022/10/24 10:52:31;;;;;;;19.98;3.95;;;23.40;60.60;;;;;;6102133;29;20115;-79
2022/10/24 10:55:36;;;;;;;11.88;3.05;;;23.50;60.30;;;;;;6102011;29;20032;-79
2022/10/24 10:59:02;;;;;;;14.77;2.70;;;23.50;59.70;;;;;;6118144;29;20044;-79
2022/10/24 11:02:18;;;;;;;7.88;2.72;;;23.50;59.60;;;;;;6092019;29;20115;-78
2022/10/24 11:05:31;;;;;;;8.55;2.75;;;23.60;59.20;;;;;;6122820;29;20032;-78
2022/10/24 11:08:50;;;;;;;11.23;2.33;;;23.60;59.10;;;;;;6103840;29;20095;-80
2022/10/24 11:12:27;;;;;;;13.90;2.95;;;23.70;58.60;;;;;;6103349;29;20048;-78
2022/10/24 11:15:34;;;;;;;10.35;1.80;;;23.80;58.30;;;;;;6097477;29;20044;-78
2022/10/24 11:18:41;;;;;;;9.30;2.10;;;23.80;57.70;;;;;;6115552;29;20044;-78
2022/10/24 11:21:43;;;;;;;6.93;1.65;;;23.80;57.20;;;;;;6111727;29;20115;-77
2022/10/24 11:24:52;;;;;;;14.65;2.20;;;23.70;57.10;;;;;;6111619;29;20039;-77
2022/10/24 11:28:26;;;;;;;4.75;1.60;;;23.60;57.20;;;;;;6082694;29;20123;-77
2022/10/24 11:31:35;;;;;;;7.75;1.70;;;23.60;57.10;;;;;;6099897;29;20032;-78
2022/10/24 11:34:53;;;;;;;6.88;1.73;;;23.70;57.00;;;;;;6098889;29;20040;-77
2022/10/24 11:38:02;;;;;;;5.05;1.77;;;23.70;56.80;;;;;;6099011;29;20315;-79
2022/10/24 11:41:37;;;;;;;6.75;2.20;;;23.70;56.60;;;;;;6100992;29;20026;-79
2022/10/24 11:45:04;;;;;;;4.53;1.23;;;23.80;56.80;;;;;;6025444;29;20439;-80
2022/10/24 11:48:12;;;;;;;9.68;2.03;;;23.80;56.60;;;;;;6029017;29;20121;-78
2022/10/24 11:51:20;;;;;;;9.13;1.40;;;23.90;56.10;;;;;;5996985;29;20371;-78
2022/10/24 11:54:27;;;;;;;6.22;1.95;;;23.90;55.90;;;;;;6027737;29;20044;-77
2022/10/24 11:57:30;;;;;;;7.60;2.17;;;24.00;55.50;;;;;;6031323;29;20325;-79
2022/10/24 12:00:54;;;;;;;9.75;1.80;;;23.90;55.60;;;;;;6013067;29;20454;-78
2022/10/24 12:04:06;;;;;;;5.15;1.38;;;24.00;55.60;;;;;;6018422;29;20045;-77
2022/10/24 12:07:07;;;;;;;8.30;1.58;;;24.30;55.30;;;;;;6032447;29;20029;-79
2022/10/24 12:10:22;;;;;;;5.95;1.33;;;24.10;55.00;;;;;;6026137;29;20044;-78
2022/10/24 12:13:39;;;;;;;6.72;1.50;;;24.30;55.00;;;;;;6002527;29;20068;-79
2022/10/24 12:17:00;;;;;;;5.82;1.50;;;24.50;54.70;;;;;;6003470;29;20049;-79
2022/10/24 12:20:11;;;;;;;10.02;1.83;;;24.90;53.80;;;;;;6070514;29;20044;-79
2022/10/24 12:23:30;;;;;;;3.22;2.05;;;25.20;53.00;;;;;;6110769;29;20331;-79
2022/10/24 12:26:33;;;;;;;7.82;1.67;;;25.40;52.70;;;;;;6114884;29;20110;-79
2022/10/24 12:29:36;;;;;;;8.55;1.40;;;25.50;52.60;;;;;;6090774;29;20206;-78
2022/10/24 12:32:38;;;;;;;14.05;1.45;;;25.50;52.20;;;;;;6100083;29;20043;-78
2022/10/24 12:35:40;;;;;;;8.20;1.42;;;25.40;52.00;;;;;;6106193;29;20747;-78
2022/10/24 12:38:41;;;;;;;14.48;2.30;;;25.30;52.20;;;;;;6099291;29;20055;-78
2022/10/24 12:41:43;;;;;;;11.85;1.48;;;25.10;52.50;;;;;;6114223;29;20075;-78
2022/10/24 12:44:45;;;;;;;14.73;2.20;;;24.90;52.80;;;;;;6093761;29;20037;-78
2022/10/24 12:47:52;;;;;;;2.83;1.23;;;24.80;53.10;;;;;;6101477;29;20043;-78
2022/10/24 12:51:01;;;;;;;4.80;1.47;;;24.70;53.50;;;;;;6100211;29;20039;-79
2022/10/24 12:54:10;;;;;;;7.22;1.73;;;24.60;53.70;;;;;;6094262;29;20466;-79
2022/10/24 12:57:11;;;;;;;7.20;1.75;;;24.50;53.40;;;;;;6100890;29;20403;-78
2022/10/24 13:00:28;;;;;;;4.47;1.73;;;24.70;53.30;;;;;;6100815;29;20048;-78
2022/10/24 13:04:05;;;;;;;7.70;1.50;;;24.60;53.40;;;;;;6088695;29;20032;-78
2022/10/24 13:07:27;;;;;;;7.97;1.65;;;24.50;53.50;;;;;;6087892;29;20134;-80
2022/10/24 13:11:04;;;;;;;5.65;1.33;;;24.60;53.50;;;;;;6097525;29;20036;-77
2022/10/24 13:14:26;;;;;;;8.30;1.63;;;24.50;53.60;;;;;;6025910;29;20085;-78
2022/10/24 13:18:06;;;;;;;8.70;1.83;;;24.50;53.60;;;;;;6025843;29;20041;-78
2022/10/24 13:21:07;;;;;;;5.30;1.60;;;24.30;53.70;;;;;;6011008;29;20116;-79
2022/10/24 13:24:15;;;;;;;8.88;1.70;;;24.30;53.70;;;;;;6026227;29;20037;-78
2022/10/24 13:27:25;;;;;;;6.85;1.58;;;24.30;53.70;;;;;;6026763;29;20042;-77
2022/10/24 13:30:26;;;;;;;11.93;1.70;;;24.30;53.80;;;;;;6015801;29;20564;-78
2022/10/24 13:33:35;;;;;;;8.45;1.70;;;24.40;53.80;;;;;;6019648;29;20064;-78
2022/10/24 13:36:36;;;;;;;3.95;1.70;;;24.40;53.70;;;;;;6003053;29;20034;-77
2022/10/24 13:39:44;;;;;;;7.00;1.70;;;24.30;53.70;;;;;;6003729;29;20053;-79
2022/10/24 13:42:50;;;;;;;8.15;1.67;;;24.40;53.80;;;;;;6010860;29;20381;-78
2022/10/24 13:45:58;;;;;;;4.68;1.25;;;24.30;53.80;;;;;;6004215;29;20036;-79
2022/10/24 13:49:00;;;;;;;3.92;2.20;;;24.40;53.90;;;;;;6072148;29;20458;-78
2022/10/24 13:52:24;;;;;;;6.13;1.98;;;24.50;53.70;;;;;;6096536;29;20092;-78
2022/10/24 13:55:29;;;;;;;11.75;1.88;;;24.50;53.70;;;;;;6031739;29;20056;-79
2022/10/24 13:58:38;;;;;;;12.48;2.30;;;24.50;53.50;;;;;;6051666;29;20041;-78
2022/10/24 14:01:40;;;;;;;10.85;1.63;;;24.60;53.60;;;;;;6049325;29;20045;-78
2022/10/24 14:04:47;;;;;;;7.35;1.40;;;24.70;53.50;;;;;;6049627;29;20452;-78
2022/10/24 14:07:48;;;;;;;4.10;1.73;;;24.60;53.40;;;;;;6041829;29;20447;-78
2022/10/24 14:10:51;;;;;;;3.80;1.75;;;24.60;53.60;;;;;;6050575;29;20067;-78
2022/10/24 14:13:58;;;;;;;8.15;1.88;;;24.50;53.80;;;;;;6033586;29;20132;-78
2022/10/24 14:17:07;;;;;;;8.05;1.80;;;24.30;53.90;;;;;;6048167;29;20051;-79
2022/10/24 14:20:08;;;;;;;7.47;1.50;;;24.20;54.10;;;;;;6049260;29;20051;-78
2022/10/24 14:23:33;;;;;;;7.80;1.73;;;24.20;54.30;;;;;;6053327;29;20359;-80
2022/10/24 14:26:34;;;;;;;10.13;1.48;;;24.20;54.30;;;;;;6047805;29;20070;-78
2022/10/24 14:29:36;;;;;;;12.13;2.15;;;24.10;54.30;;;;;;6052469;29;20549;-77
2022/10/24 14:32:37;;;;;;;8.18;1.88;;;24.10;54.40;;;;;;6067232;29;20089;-78
2022/10/24 14:35:38;;;;;;;8.55;2.22;;;24.00;54.60;;;;;;6082256;29;20460;-77
2022/10/24 14:38:40;;;;;;;12.32;2.47;;;24.00;54.70;;;;;;6080026;29;20135;-79
2022/10/24 14:41:42;;;;;;;7.75;1.80;;;24.00;54.80;;;;;;6075751;29;20104;-78
2022/10/24 14:44:45;;;;;;;7.43;2.08;;;24.00;54.80;;;;;;6078436;29;20498;-78
2022/10/24 14:47:52;;;;;;;10.45;1.85;;;24.00;54.70;;;;;;6058783;29;20051;-78
2022/10/24 14:50:53;;;;;;;5.22;1.70;;;23.90;54.60;;;;;;6087477;29;20032;-78
2022/10/24 14:53:56;;;;;;;7.60;1.58;;;23.90;54.60;;;;;;6079823;29;20164;-78
2022/10/24 14:56:59;;;;;;;7.18;1.73;;;23.90;54.60;;;;;;6071796;29;20044;-78
2022/10/24 15:00:06;;;;;;;7.15;1.52;;;23.80;54.50;;;;;;6070476;29;20037;-79
2022/10/24 15:03:09;;;;;;;4.10;1.50;;;23.70;54.60;;;;;;6062682;29;20354;-79
2022/10/24 15:06:20;;;;;;;7.82;1.70;;;23.70;55.40;;;;;;6079518;29;20340;-78
2022/10/24 15:09:27;;;;;;;6.00;1.67;;;23.60;54.80;;;;;;6043636;29;20492;-78
2022/10/24 15:12:41;;;;;;;12.90;2.65;;;23.60;54.80;;;;;;6063511;29;20119;-78
2022/10/24 15:15:56;;;;;;;14.23;2.17;;;23.50;55.40;;;;;;6075714;29;20039;-78
2022/10/24 15:18:57;;;;;;;11.73;2.55;;;23.30;56.40;;;;;;6061458;29;20100;-78
2022/10/24 15:21:58;;;;;;;19.55;7.82;;;23.10;57.00;;;;;;6094540;29;20028;-78
2022/10/24 15:25:03;;;;;;;10.90;2.67;;;23.00;58.90;;;;;;6095104;29;20059;-78
2022/10/24 15:28:05;;;;;;;10.88;2.60;;;22.60;59.60;;;;;;6076635;29;20027;-78
2022/10/24 15:31:10;;;;;;;16.70;2.38;;;22.30;60.10;;;;;;6101411;29;20703;-78
2022/10/24 15:34:20;;;;;;;7.93;2.17;;;22.20;60.80;;;;;;6097606;29;20051;-78
2022/10/24 15:37:23;;;;;;;7.28;2.92;;;22.10;60.90;;;;;;6108114;29;20036;-77
2022/10/24 15:40:28;;;;;;;5.55;2.03;;;22.10;61.00;;;;;;6100711;29;20421;-78
2022/10/24 15:43:29;;;;;;;11.68;2.30;;;22.10;60.90;;;;;;6096872;29;20039;-78
2022/10/24 15:46:30;;;;;;;12.77;2.00;;;22.20;60.70;;;;;;6097018;29;20029;-78
2022/10/24 15:49:32;;;;;;;7.20;1.70;;;22.20;60.50;;;;;;6106109;29;20070;-78
2022/10/24 15:52:33;;;;;;;9.68;1.50;;;22.30;60.20;;;;;;6101757;29;20042;-78
2022/10/24 15:55:34;;;;;;;7.47;2.00;;;22.30;59.80;;;;;;6117100;29;20055;-78